sensor_id;sensor_type;location;lat;lon;timestamp;temperature;humidity
7155;DHT22;3619;53.784;10.440;2023-04-24T00:00:57;12.00;99.90
7155;DHT22;3619;53.784;10.440;2023-04-24T00:03:25;11.90;99.90
7155;DHT22;3619;53.784;10.440;2023-04-24T00:05:53;11.90;99.90
7155;DHT22;3619;53.784;10.440;2023-04-24T00:08:20;11.80;99.90
7155;DHT22;3619;53.784;10.440;2023-04-24T00:10:48;11.70;99.90
7155;DHT22;3619;53.784;10.440;2023-04-24T00:13:15;11.70;99.90
7155;DHT22;3619;53.784;10.440;2023-04-24T00:15:41;11.60;99.90
7155;DHT22;3619;53.784;10.440;2023-04-24T00:18:08;11.60;99.90
7155;DHT22;3619;53.784;10.440;2023-04-24T00:20:36;11.60;99.90
7155;DHT22;3619;53.784;10.440;2023-04-24T00:23:03;11.60;99.90
7155;DHT22;3619;53.784;10.440;2023-04-24T00:25:30;11.60;99.90
7155;DHT22;3619;53.784;10.440;2023-04-24T00:27:57;11.60;99.90
7155;DHT22;3619;53.784;10.440;2023-04-24T00:30:24;11.60;99.90
7155;DHT22;3619;53.784;10.440;2023-04-24T00:32:50;11.60;99.90
7155;DHT22;3619;53.784;10.440;2023-04-24T00:35:17;11.60;99.90
7155;DHT22;3619;53.784;10.440;2023-04-24T00:37:46;11.60;99.90
7155;DHT22;3619;53.784;10.440;2023-04-24T00:40:13;11.50;99.90
7155;DHT22;3619;53.784;10.440;2023-04-24T00:42:40;11.50;99.90
7155;DHT22;3619;53.784;10.440;2023-04-24T00:45:08;11.50;99.90
7155;DHT22;3619;53.784;10.440;2023-04-24T00:47:34;11.40;99.90
7155;DHT22;3619;53.784;10.440;2023-04-24T00:50:02;11.40;99.90
7155;DHT22;3619;53.784;10.440;2023-04-24T00:52:29;11.40;99.90
7155;DHT22;3619;53.784;10.440;2023-04-24T00:54:58;11.40;99.90
7155;DHT22;3619;53.784;10.440;2023-04-24T00:57:25;11.40;99.90
7155;DHT22;3619;53.784;10.440;2023-04-24T00:59:53;11.40;99.90
7155;DHT22;3619;53.784;10.440;2023-04-24T01:02:21;11.50;99.90
7155;DHT22;3619;53.784;10.440;2023-04-24T01:04:50;11.40;99.90
7155;DHT22;3619;53.784;10.440;2023-04-24T01:07:19;11.40;99.90
7155;DHT22;3619;53.784;10.440;2023-04-24T01:09:48;11.40;99.90
7155;DHT22;3619;53.784;10.440;2023-04-24T01:12:18;11.30;99.90
7155;DHT22;3619;53.784;10.440;2023-04-24T01:14:45;11.30;99.90
7155;DHT22;3619;53.784;10.440;2023-04-24T01:17:12;11.30;99.90
7155;DHT22;3619;53.784;10.440;2023-04-24T01:19:39;11.30;99.90
7155;DHT22;3619;53.784;10.440;2023-04-24T01:22:12;11.20;99.90
7155;DHT22;3619;53.784;10.440;2023-04-24T01:24:39;11.20;99.90
7155;DHT22;3619;53.784;10.440;2023-04-24T01:27:07;11.10;99.90
7155;DHT22;3619;53.784;10.440;2023-04-24T01:29:34;11.10;99.90
7155;DHT22;3619;53.784;10.440;2023-04-24T01:32:02;11.10;99.90
7155;DHT22;3619;53.784;10.440;2023-04-24T01:34:29;11.10;99.90
7155;DHT22;3619;53.784;10.440;2023-04-24T01:36:56;11.00;99.90
7155;DHT22;3619;53.784;10.440;2023-04-24T01:39:24;11.00;99.90
7155;DHT22;3619;53.784;10.440;2023-04-24T01:41:51;11.10;99.90
7155;DHT22;3619;53.784;10.440;2023-04-24T01:44:19;11.10;99.90
7155;DHT22;3619;53.784;10.440;2023-04-24T01:46:46;11.10;99.90
7155;DHT22;3619;53.784;10.440;2023-04-24T01:49:12;11.10;99.90
7155;DHT22;3619;53.784;10.440;2023-04-24T01:51:39;11.10;99.90
7155;DHT22;3619;53.784;10.440;2023-04-24T01:54:06;11.10;99.90
7155;DHT22;3619;53.784;10.440;2023-04-24T01:56:35;11.10;99.90
7155;DHT22;3619;53.784;10.440;2023-04-24T01:59:03;11.10;99.90
7155;DHT22;3619;53.784;10.440;2023-04-24T02:01:34;11.10;99.90
7155;DHT22;3619;53.784;10.440;2023-04-24T02:04:02;11.20;99.90
7155;DHT22;3619;53.784;10.440;2023-04-24T02:06:29;11.10;99.90
7155;DHT22;3619;53.784;10.440;2023-04-24T02:08:56;11.10;99.90
7155;DHT22;3619;53.784;10.440;2023-04-24T02:11:23;11.00;99.90
7155;DHT22;3619;53.784;10.440;2023-04-24T02:13:51;11.00;99.90
7155;DHT22;3619;53.784;10.440;2023-04-24T02:16:18;10.90;99.90
7155;DHT22;3619;53.784;10.440;2023-04-24T02:18:45;10.90;99.90
7155;DHT22;3619;53.784;10.440;2023-04-24T02:21:12;10.80;99.90
7155;DHT22;3619;53.784;10.440;2023-04-24T02:23:39;10.70;99.90
7155;DHT22;3619;53.784;10.440;2023-04-24T02:26:06;10.70;99.90
7155;DHT22;3619;53.784;10.440;2023-04-24T02:28:33;10.70;99.90
7155;DHT22;3619;53.784;10.440;2023-04-24T02:31:01;10.70;99.90
7155;DHT22;3619;53.784;10.440;2023-04-24T02:33:28;10.60;99.90
7155;DHT22;3619;53.784;10.440;2023-04-24T02:35:55;10.60;99.90
7155;DHT22;3619;53.784;10.440;2023-04-24T02:38:22;10.50;99.90
7155;DHT22;3619;53.784;10.440;2023-04-24T02:40:48;10.50;99.90
7155;DHT22;3619;53.784;10.440;2023-04-24T02:43:15;10.50;99.90
7155;DHT22;3619;53.784;10.440;2023-04-24T02:45:42;10.40;99.90
7155;DHT22;3619;53.784;10.440;2023-04-24T02:48:10;10.40;99.90
7155;DHT22;3619;53.784;10.440;2023-04-24T02:50:37;10.30;99.90
7155;DHT22;3619;53.784;10.440;2023-04-24T02:53:04;10.40;99.90
7155;DHT22;3619;53.784;10.440;2023-04-24T02:55:30;10.30;99.90
7155;DHT22;3619;53.784;10.440;2023-04-24T02:57:57;10.30;99.90
7155;DHT22;3619;53.784;10.440;2023-04-24T03:00:24;10.40;99.90
7155;DHT22;3619;53.784;10.440;2023-04-24T03:02:51;10.30;99.90
7155;DHT22;3619;53.784;10.440;2023-04-24T03:05:20;10.20;99.90
7155;DHT22;3619;53.784;10.440;2023-04-24T03:07:46;10.20;99.90
7155;DHT22;3619;53.784;10.440;2023-04-24T03:10:13;10.20;99.90
7155;DHT22;3619;53.784;10.440;2023-04-24T03:12:43;10.10;99.90
7155;DHT22;3619;53.784;10.440;2023-04-24T03:15:10;10.10;99.90
7155;DHT22;3619;53.784;10.440;2023-04-24T03:17:37;10.10;99.90
7155;DHT22;3619;53.784;10.440;2023-04-24T03:20:05;10.10;99.90
7155;DHT22;3619;53.784;10.440;2023-04-24T03:22:34;10.10;99.90
7155;DHT22;3619;53.784;10.440;2023-04-24T03:25:01;10.00;99.90
7155;DHT22;3619;53.784;10.440;2023-04-24T03:27:28;10.00;99.90
7155;DHT22;3619;53.784;10.440;2023-04-24T03:29:56;10.00;99.90
7155;DHT22;3619;53.784;10.440;2023-04-24T03:32:22;10.00;99.90
7155;DHT22;3619;53.784;10.440;2023-04-24T03:34:49;10.00;99.90
7155;DHT22;3619;53.784;10.440;2023-04-24T03:37:16;9.90;99.90
7155;DHT22;3619;53.784;10.440;2023-04-24T03:39:45;9.90;99.90
7155;DHT22;3619;53.784;10.440;2023-04-24T03:42:11;9.90;99.90
7155;DHT22;3619;53.784;10.440;2023-04-24T03:44:38;9.90;99.90
7155;DHT22;3619;53.784;10.440;2023-04-24T03:47:05;9.90;99.90
7155;DHT22;3619;53.784;10.440;2023-04-24T03:49:31;9.90;99.90
7155;DHT22;3619;53.784;10.440;2023-04-24T03:51:58;9.90;99.90
7155;DHT22;3619;53.784;10.440;2023-04-24T03:54:25;9.80;99.90
7155;DHT22;3619;53.784;10.440;2023-04-24T03:56:53;9.80;99.90
7155;DHT22;3619;53.784;10.440;2023-04-24T03:59:20;9.80;99.90
7155;DHT22;3619;53.784;10.440;2023-04-24T04:01:46;9.80;99.90
7155;DHT22;3619;53.784;10.440;2023-04-24T04:04:13;9.70;99.90
7155;DHT22;3619;53.784;10.440;2023-04-24T04:06:40;9.70;99.90
7155;DHT22;3619;53.784;10.440;2023-04-24T04:09:09;9.70;99.90
7155;DHT22;3619;53.784;10.440;2023-04-24T04:11:37;9.70;99.90
7155;DHT22;3619;53.784;10.440;2023-04-24T04:14:05;9.70;99.90
7155;DHT22;3619;53.784;10.440;2023-04-24T04:16:32;9.70;99.90
7155;DHT22;3619;53.784;10.440;2023-04-24T04:18:59;9.70;99.90
7155;DHT22;3619;53.784;10.440;2023-04-24T04:21:26;9.70;99.90
7155;DHT22;3619;53.784;10.440;2023-04-24T04:23:53;9.70;99.90
7155;DHT22;3619;53.784;10.440;2023-04-24T04:26:20;9.70;99.90
7155;DHT22;3619;53.784;10.440;2023-04-24T04:28:47;9.70;99.90
7155;DHT22;3619;53.784;10.440;2023-04-24T04:31:15;9.70;99.90
7155;DHT22;3619;53.784;10.440;2023-04-24T04:33:42;9.70;99.90
7155;DHT22;3619;53.784;10.440;2023-04-24T04:36:09;9.70;99.90
7155;DHT22;3619;53.784;10.440;2023-04-24T04:38:36;9.70;99.90
7155;DHT22;3619;53.784;10.440;2023-04-24T04:41:03;9.70;99.90
7155;DHT22;3619;53.784;10.440;2023-04-24T04:43:31;9.70;99.90
7155;DHT22;3619;53.784;10.440;2023-04-24T04:45:58;9.70;99.90
7155;DHT22;3619;53.784;10.440;2023-04-24T04:48:27;9.70;99.90
7155;DHT22;3619;53.784;10.440;2023-04-24T04:50:54;9.70;99.90
7155;DHT22;3619;53.784;10.440;2023-04-24T04:53:21;9.70;99.90
7155;DHT22;3619;53.784;10.440;2023-04-24T04:55:48;9.70;99.90
7155;DHT22;3619;53.784;10.440;2023-04-24T04:58:14;9.70;99.90
7155;DHT22;3619;53.784;10.440;2023-04-24T05:00:41;9.70;99.90
7155;DHT22;3619;53.784;10.440;2023-04-24T05:03:08;9.80;99.90
7155;DHT22;3619;53.784;10.440;2023-04-24T05:05:36;9.80;99.90
7155;DHT22;3619;53.784;10.440;2023-04-24T05:08:06;9.90;99.90
7155;DHT22;3619;53.784;10.440;2023-04-24T05:10:33;9.90;99.90
7155;DHT22;3619;53.784;10.440;2023-04-24T05:13:02;10.00;99.90
7155;DHT22;3619;53.784;10.440;2023-04-24T05:15:29;10.00;99.90
7155;DHT22;3619;53.784;10.440;2023-04-24T05:17:55;10.10;99.90
7155;DHT22;3619;53.784;10.440;2023-04-24T05:20:22;10.20;99.90
7155;DHT22;3619;53.784;10.440;2023-04-24T05:22:51;10.40;99.90
7155;DHT22;3619;53.784;10.440;2023-04-24T05:25:18;10.50;99.90
7155;DHT22;3619;53.784;10.440;2023-04-24T05:27:45;10.60;99.90
7155;DHT22;3619;53.784;10.440;2023-04-24T05:30:12;10.80;99.90
7155;DHT22;3619;53.784;10.440;2023-04-24T05:32:39;10.90;99.90
7155;DHT22;3619;53.784;10.440;2023-04-24T05:35:07;11.10;99.90
7155;DHT22;3619;53.784;10.440;2023-04-24T05:37:33;11.30;99.90
7155;DHT22;3619;53.784;10.440;2023-04-24T05:40:02;11.40;99.90
7155;DHT22;3619;53.784;10.440;2023-04-24T05:42:30;11.50;99.90
7155;DHT22;3619;53.784;10.440;2023-04-24T05:44:57;11.60;99.90
7155;DHT22;3619;53.784;10.440;2023-04-24T05:47:24;11.60;99.90
7155;DHT22;3619;53.784;10.440;2023-04-24T05:49:51;11.80;99.90
7155;DHT22;3619;53.784;10.440;2023-04-24T05:52:19;11.90;99.90
7155;DHT22;3619;53.784;10.440;2023-04-24T05:54:46;12.10;99.90
7155;DHT22;3619;53.784;10.440;2023-04-24T05:57:14;12.30;99.90
7155;DHT22;3619;53.784;10.440;2023-04-24T05:59:41;12.40;99.90
7155;DHT22;3619;53.784;10.440;2023-04-24T06:02:08;12.60;99.90
7155;DHT22;3619;53.784;10.440;2023-04-24T06:04:35;12.70;99.90
7155;DHT22;3619;53.784;10.440;2023-04-24T06:07:02;12.90;99.90
7155;DHT22;3619;53.784;10.440;2023-04-24T06:09:29;13.10;99.90
7155;DHT22;3619;53.784;10.440;2023-04-24T06:11:56;13.20;99.90
7155;DHT22;3619;53.784;10.440;2023-04-24T06:14:25;13.20;99.90
7155;DHT22;3619;53.784;10.440;2023-04-24T06:16:52;13.50;99.90
7155;DHT22;3619;53.784;10.440;2023-04-24T06:19:19;13.70;99.90
7155;DHT22;3619;53.784;10.440;2023-04-24T06:21:46;13.80;99.90
7155;DHT22;3619;53.784;10.440;2023-04-24T06:24:14;13.90;99.90
7155;DHT22;3619;53.784;10.440;2023-04-24T06:26:41;14.00;99.90
7155;DHT22;3619;53.784;10.440;2023-04-24T06:29:08;14.10;99.90
7155;DHT22;3619;53.784;10.440;2023-04-24T06:31:37;14.20;99.90
7155;DHT22;3619;53.784;10.440;2023-04-24T06:34:04;14.20;99.90
7155;DHT22;3619;53.784;10.440;2023-04-24T06:36:31;14.30;99.90
7155;DHT22;3619;53.784;10.440;2023-04-24T06:39:00;14.30;99.90
7155;DHT22;3619;53.784;10.440;2023-04-24T06:41:26;14.30;99.90
7155;DHT22;3619;53.784;10.440;2023-04-24T06:43:53;14.40;99.90
7155;DHT22;3619;53.784;10.440;2023-04-24T06:46:20;14.30;99.90
7155;DHT22;3619;53.784;10.440;2023-04-24T06:48:50;14.50;99.90
7155;DHT22;3619;53.784;10.440;2023-04-24T06:51:17;14.60;99.90
7155;DHT22;3619;53.784;10.440;2023-04-24T06:53:44;14.90;99.90
7155;DHT22;3619;53.784;10.440;2023-04-24T06:56:11;15.20;99.90
7155;DHT22;3619;53.784;10.440;2023-04-24T06:58:37;15.50;99.90
7155;DHT22;3619;53.784;10.440;2023-04-24T07:01:04;15.70;99.90
7155;DHT22;3619;53.784;10.440;2023-04-24T07:03:31;15.70;99.90
7155;DHT22;3619;53.784;10.440;2023-04-24T07:06:00;15.60;99.90
7155;DHT22;3619;53.784;10.440;2023-04-24T07:08:29;15.60;99.90
7155;DHT22;3619;53.784;10.440;2023-04-24T07:10:56;15.60;99.90
7155;DHT22;3619;53.784;10.440;2023-04-24T07:13:23;15.80;99.90
7155;DHT22;3619;53.784;10.440;2023-04-24T07:15:50;16.00;99.90
7155;DHT22;3619;53.784;10.440;2023-04-24T07:18:19;16.00;99.90
7155;DHT22;3619;53.784;10.440;2023-04-24T07:20:46;16.00;99.90
7155;DHT22;3619;53.784;10.440;2023-04-24T07:23:14;16.30;99.90
7155;DHT22;3619;53.784;10.440;2023-04-24T07:25:42;16.40;99.90
7155;DHT22;3619;53.784;10.440;2023-04-24T07:28:10;16.30;99.90
7155;DHT22;3619;53.784;10.440;2023-04-24T07:30:36;15.90;99.90
7155;DHT22;3619;53.784;10.440;2023-04-24T07:33:04;15.90;99.90
7155;DHT22;3619;53.784;10.440;2023-04-24T07:35:33;15.80;99.90
7155;DHT22;3619;53.784;10.440;2023-04-24T07:38:00;15.80;99.90
7155;DHT22;3619;53.784;10.440;2023-04-24T07:40:29;15.60;99.90
7155;DHT22;3619;53.784;10.440;2023-04-24T07:42:55;15.40;99.90
7155;DHT22;3619;53.784;10.440;2023-04-24T07:45:22;15.50;99.90
7155;DHT22;3619;53.784;10.440;2023-04-24T07:47:51;15.40;99.90
7155;DHT22;3619;53.784;10.440;2023-04-24T07:50:18;15.40;99.90
7155;DHT22;3619;53.784;10.440;2023-04-24T07:52:45;15.60;99.90
7155;DHT22;3619;53.784;10.440;2023-04-24T07:55:12;15.30;99.90
7155;DHT22;3619;53.784;10.440;2023-04-24T07:57:40;15.30;99.90
7155;DHT22;3619;53.784;10.440;2023-04-24T08:00:07;15.60;99.90
7155;DHT22;3619;53.784;10.440;2023-04-24T08:02:34;15.60;99.90
7155;DHT22;3619;53.784;10.440;2023-04-24T08:05:02;15.80;99.90
7155;DHT22;3619;53.784;10.440;2023-04-24T08:07:29;16.10;99.90
7155;DHT22;3619;53.784;10.440;2023-04-24T08:09:56;15.90;99.90
7155;DHT22;3619;53.784;10.440;2023-04-24T08:12:23;16.00;99.90
7155;DHT22;3619;53.784;10.440;2023-04-24T08:14:51;16.20;99.90
7155;DHT22;3619;53.784;10.440;2023-04-24T08:17:18;16.50;99.90
7155;DHT22;3619;53.784;10.440;2023-04-24T08:19:44;16.40;99.90
7155;DHT22;3619;53.784;10.440;2023-04-24T08:22:14;16.20;99.90
7155;DHT22;3619;53.784;10.440;2023-04-24T08:24:41;16.00;99.90
7155;DHT22;3619;53.784;10.440;2023-04-24T08:27:09;16.00;99.90
7155;DHT22;3619;53.784;10.440;2023-04-24T08:29:36;15.70;99.90
7155;DHT22;3619;53.784;10.440;2023-04-24T08:32:04;15.70;99.90
7155;DHT22;3619;53.784;10.440;2023-04-24T08:34:32;16.00;99.90
7155;DHT22;3619;53.784;10.440;2023-04-24T08:36:59;16.00;99.90
7155;DHT22;3619;53.784;10.440;2023-04-24T08:39:26;16.00;99.90
7155;DHT22;3619;53.784;10.440;2023-04-24T08:41:53;16.20;99.90
7155;DHT22;3619;53.784;10.440;2023-04-24T08:44:21;16.10;99.90
7155;DHT22;3619;53.784;10.440;2023-04-24T08:46:48;15.80;99.90
7155;DHT22;3619;53.784;10.440;2023-04-24T08:49:18;15.80;99.90
7155;DHT22;3619;53.784;10.440;2023-04-24T08:51:45;15.70;99.90
7155;DHT22;3619;53.784;10.440;2023-04-24T08:54:13;16.00;99.90
7155;DHT22;3619;53.784;10.440;2023-04-24T08:56:42;16.00;99.90
7155;DHT22;3619;53.784;10.440;2023-04-24T08:59:11;15.60;99.90
7155;DHT22;3619;53.784;10.440;2023-04-24T09:01:40;15.30;99.90
7155;DHT22;3619;53.784;10.440;2023-04-24T09:04:08;15.50;99.90
7155;DHT22;3619;53.784;10.440;2023-04-24T09:06:37;15.70;99.90
7155;DHT22;3619;53.784;10.440;2023-04-24T09:09:04;15.70;99.90
7155;DHT22;3619;53.784;10.440;2023-04-24T09:11:32;15.70;99.90
7155;DHT22;3619;53.784;10.440;2023-04-24T09:13:59;15.90;99.90
7155;DHT22;3619;53.784;10.440;2023-04-24T09:16:27;16.10;99.90
7155;DHT22;3619;53.784;10.440;2023-04-24T09:18:55;16.70;99.90
7155;DHT22;3619;53.784;10.440;2023-04-24T09:21:22;17.20;99.90
7155;DHT22;3619;53.784;10.440;2023-04-24T09:23:59;16.80;99.90
7155;DHT22;3619;53.784;10.440;2023-04-24T09:26:28;16.30;99.90
7155;DHT22;3619;53.784;10.440;2023-04-24T09:28:56;16.50;99.90
7155;DHT22;3619;53.784;10.440;2023-04-24T09:31:24;16.40;99.90
7155;DHT22;3619;53.784;10.440;2023-04-24T09:33:57;16.00;99.90
7155;DHT22;3619;53.784;10.440;2023-04-24T09:36:28;16.10;99.90
7155;DHT22;3619;53.784;10.440;2023-04-24T09:38:59;15.50;99.90
7155;DHT22;3619;53.784;10.440;2023-04-24T09:41:27;15.20;99.90
7155;DHT22;3619;53.784;10.440;2023-04-24T09:44:01;15.00;99.90
7155;DHT22;3619;53.784;10.440;2023-04-24T09:46:37;15.00;99.90
7155;DHT22;3619;53.784;10.440;2023-04-24T09:49:08;14.80;99.90
7155;DHT22;3619;53.784;10.440;2023-04-24T09:51:37;15.10;99.90
7155;DHT22;3619;53.784;10.440;2023-04-24T09:54:14;15.60;99.90
7155;DHT22;3619;53.784;10.440;2023-04-24T09:56:42;15.80;99.90
7155;DHT22;3619;53.784;10.440;2023-04-24T09:59:10;15.80;99.90
7155;DHT22;3619;53.784;10.440;2023-04-24T10:01:37;15.70;99.90
7155;DHT22;3619;53.784;10.440;2023-04-24T10:04:15;15.50;99.90
7155;DHT22;3619;53.784;10.440;2023-04-24T10:06:42;15.30;99.90
7155;DHT22;3619;53.784;10.440;2023-04-24T10:09:14;15.30;99.90
7155;DHT22;3619;53.784;10.440;2023-04-24T10:11:42;15.30;99.90
7155;DHT22;3619;53.784;10.440;2023-04-24T10:14:12;15.70;99.90
7155;DHT22;3619;53.784;10.440;2023-04-24T10:16:40;15.90;99.90
7155;DHT22;3619;53.784;10.440;2023-04-24T10:19:07;15.70;99.90
7155;DHT22;3619;53.784;10.440;2023-04-24T10:21:34;15.80;99.90
7155;DHT22;3619;53.784;10.440;2023-04-24T10:24:03;16.00;99.90
7155;DHT22;3619;53.784;10.440;2023-04-24T10:26:34;15.90;99.90
7155;DHT22;3619;53.784;10.440;2023-04-24T10:29:01;16.00;99.90
7155;DHT22;3619;53.784;10.440;2023-04-24T10:31:31;16.10;99.90
7155;DHT22;3619;53.784;10.440;2023-04-24T10:33:58;16.70;99.90
7155;DHT22;3619;53.784;10.440;2023-04-24T10:36:27;17.30;99.90
7155;DHT22;3619;53.784;10.440;2023-04-24T10:38:56;17.80;99.90
7155;DHT22;3619;53.784;10.440;2023-04-24T10:41:25;17.70;99.90
7155;DHT22;3619;53.784;10.440;2023-04-24T10:44:06;17.90;99.90
7155;DHT22;3619;53.784;10.440;2023-04-24T10:46:33;17.90;99.90
7155;DHT22;3619;53.784;10.440;2023-04-24T10:49:03;18.00;99.90
7155;DHT22;3619;53.784;10.440;2023-04-24T10:51:45;18.20;99.90
7155;DHT22;3619;53.784;10.440;2023-04-24T10:54:23;18.30;99.90
7155;DHT22;3619;53.784;10.440;2023-04-24T10:56:51;18.80;99.90
7155;DHT22;3619;53.784;10.440;2023-04-24T10:59:26;18.70;99.90
7155;DHT22;3619;53.784;10.440;2023-04-24T11:01:53;18.80;99.90
7155;DHT22;3619;53.784;10.440;2023-04-24T11:04:31;18.50;99.90
7155;DHT22;3619;53.784;10.440;2023-04-24T11:06:58;18.30;99.90
7155;DHT22;3619;53.784;10.440;2023-04-24T11:09:27;18.10;99.90
7155;DHT22;3619;53.784;10.440;2023-04-24T11:12:03;18.10;99.90
7155;DHT22;3619;53.784;10.440;2023-04-24T11:14:59;17.80;99.90
7155;DHT22;3619;53.784;10.440;2023-04-24T11:17:30;17.50;99.90
7155;DHT22;3619;53.784;10.440;2023-04-24T11:20:05;17.60;99.90
7155;DHT22;3619;53.784;10.440;2023-04-24T11:22:34;17.50;99.90
7155;DHT22;3619;53.784;10.440;2023-04-24T11:25:04;17.20;99.90
7155;DHT22;3619;53.784;10.440;2023-04-24T11:27:40;16.80;99.90
7155;DHT22;3619;53.784;10.440;2023-04-24T11:30:10;16.40;99.90
7155;DHT22;3619;53.784;10.440;2023-04-24T11:32:39;16.30;99.90
7155;DHT22;3619;53.784;10.440;2023-04-24T11:35:07;16.20;99.90
7155;DHT22;3619;53.784;10.440;2023-04-24T11:37:36;16.10;99.90
7155;DHT22;3619;53.784;10.440;2023-04-24T11:40:05;16.00;99.90
7155;DHT22;3619;53.784;10.440;2023-04-24T11:42:35;15.80;99.90
7155;DHT22;3619;53.784;10.440;2023-04-24T11:45:09;15.60;99.90
7155;DHT22;3619;53.784;10.440;2023-04-24T11:47:37;15.70;99.90
7155;DHT22;3619;53.784;10.440;2023-04-24T11:50:06;15.90;99.90
7155;DHT22;3619;53.784;10.440;2023-04-24T11:52:36;16.00;99.90
7155;DHT22;3619;53.784;10.440;2023-04-24T11:55:05;16.20;99.90
7155;DHT22;3619;53.784;10.440;2023-04-24T11:57:33;16.30;99.90
7155;DHT22;3619;53.784;10.440;2023-04-24T12:00:02;16.30;99.90
7155;DHT22;3619;53.784;10.440;2023-04-24T12:02:32;15.90;99.90
7155;DHT22;3619;53.784;10.440;2023-04-24T12:04:58;15.70;99.90
7155;DHT22;3619;53.784;10.440;2023-04-24T12:07:28;15.70;99.90
7155;DHT22;3619;53.784;10.440;2023-04-24T12:09:57;16.30;99.90
7155;DHT22;3619;53.784;10.440;2023-04-24T12:12:26;16.90;99.90
7155;DHT22;3619;53.784;10.440;2023-04-24T12:14:54;17.30;99.90
7155;DHT22;3619;53.784;10.440;2023-04-24T12:17:27;16.90;99.90
7155;DHT22;3619;53.784;10.440;2023-04-24T12:19:59;16.30;99.90
7155;DHT22;3619;53.784;10.440;2023-04-24T12:22:28;15.60;99.90
7155;DHT22;3619;53.784;10.440;2023-04-24T12:25:02;15.00;99.90
7155;DHT22;3619;53.784;10.440;2023-04-24T12:27:31;14.90;99.90
7155;DHT22;3619;53.784;10.440;2023-04-24T12:30:00;14.90;99.90
7155;DHT22;3619;53.784;10.440;2023-04-24T12:32:27;14.90;99.90
7155;DHT22;3619;53.784;10.440;2023-04-24T12:34:55;15.00;99.90
7155;DHT22;3619;53.784;10.440;2023-04-24T12:37:24;15.10;99.90
7155;DHT22;3619;53.784;10.440;2023-04-24T12:40:06;15.20;99.90
7155;DHT22;3619;53.784;10.440;2023-04-24T12:42:34;15.00;99.90
7155;DHT22;3619;53.784;10.440;2023-04-24T12:45:03;15.10;99.90
7155;DHT22;3619;53.784;10.440;2023-04-24T12:47:31;15.20;99.90
7155;DHT22;3619;53.784;10.440;2023-04-24T12:49:58;15.50;99.90
7155;DHT22;3619;53.784;10.440;2023-04-24T12:52:28;15.70;99.90
7155;DHT22;3619;53.784;10.440;2023-04-24T12:54:57;15.80;99.90
7155;DHT22;3619;53.784;10.440;2023-04-24T12:57:25;15.60;99.90
7155;DHT22;3619;53.784;10.440;2023-04-24T12:59:53;15.60;99.90
7155;DHT22;3619;53.784;10.440;2023-04-24T13:02:20;15.70;99.90
7155;DHT22;3619;53.784;10.440;2023-04-24T13:04:48;16.40;99.90
7155;DHT22;3619;53.784;10.440;2023-04-24T13:07:15;16.70;99.90
7155;DHT22;3619;53.784;10.440;2023-04-24T13:09:45;16.60;99.90
7155;DHT22;3619;53.784;10.440;2023-04-24T13:12:14;16.20;99.90
7155;DHT22;3619;53.784;10.440;2023-04-24T13:14:41;15.90;99.90
7155;DHT22;3619;53.784;10.440;2023-04-24T13:17:08;15.70;99.90
7155;DHT22;3619;53.784;10.440;2023-04-24T13:19:37;15.50;99.90
7155;DHT22;3619;53.784;10.440;2023-04-24T13:22:05;15.20;99.90
7155;DHT22;3619;53.784;10.440;2023-04-24T13:24:32;15.20;99.90
7155;DHT22;3619;53.784;10.440;2023-04-24T13:27:01;15.10;99.90
7155;DHT22;3619;53.784;10.440;2023-04-24T13:29:28;15.00;99.90
7155;DHT22;3619;53.784;10.440;2023-04-24T13:31:55;14.90;99.90
7155;DHT22;3619;53.784;10.440;2023-04-24T13:34:22;14.60;99.90
7155;DHT22;3619;53.784;10.440;2023-04-24T13:36:49;14.40;99.90
7155;DHT22;3619;53.784;10.440;2023-04-24T13:39:17;14.10;99.90
7155;DHT22;3619;53.784;10.440;2023-04-24T13:41:43;13.90;99.90
7155;DHT22;3619;53.784;10.440;2023-04-24T13:44:12;13.80;99.90
7155;DHT22;3619;53.784;10.440;2023-04-24T13:46:38;13.60;99.90
7155;DHT22;3619;53.784;10.440;2023-04-24T13:49:06;13.30;99.90
7155;DHT22;3619;53.784;10.440;2023-04-24T13:51:33;13.20;99.90
7155;DHT22;3619;53.784;10.440;2023-04-24T13:54:00;13.10;99.90
7155;DHT22;3619;53.784;10.440;2023-04-24T13:56:27;13.10;99.90
7155;DHT22;3619;53.784;10.440;2023-04-24T13:58:53;13.10;99.90
7155;DHT22;3619;53.784;10.440;2023-04-24T14:01:22;13.20;99.90
7155;DHT22;3619;53.784;10.440;2023-04-24T14:03:50;13.20;99.90
7155;DHT22;3619;53.784;10.440;2023-04-24T14:06:17;13.40;99.90
7155;DHT22;3619;53.784;10.440;2023-04-24T14:08:44;13.40;99.90
7155;DHT22;3619;53.784;10.440;2023-04-24T14:11:11;13.50;99.90
7155;DHT22;3619;53.784;10.440;2023-04-24T14:13:38;13.50;99.90
7155;DHT22;3619;53.784;10.440;2023-04-24T14:16:07;13.60;99.90
7155;DHT22;3619;53.784;10.440;2023-04-24T14:18:35;13.60;99.90
7155;DHT22;3619;53.784;10.440;2023-04-24T14:21:02;13.50;99.90
7155;DHT22;3619;53.784;10.440;2023-04-24T14:23:28;13.40;99.90
7155;DHT22;3619;53.784;10.440;2023-04-24T14:25:57;13.20;99.90
7155;DHT22;3619;53.784;10.440;2023-04-24T14:28:24;13.10;99.90
7155;DHT22;3619;53.784;10.440;2023-04-24T14:30:51;13.20;99.90
7155;DHT22;3619;53.784;10.440;2023-04-24T14:33:19;13.30;99.90
7155;DHT22;3619;53.784;10.440;2023-04-24T14:35:47;13.50;99.90
7155;DHT22;3619;53.784;10.440;2023-04-24T14:38:14;13.60;99.90
7155;DHT22;3619;53.784;10.440;2023-04-24T14:40:41;13.60;99.90
7155;DHT22;3619;53.784;10.440;2023-04-24T14:43:08;13.60;99.90
7155;DHT22;3619;53.784;10.440;2023-04-24T14:45:36;13.70;99.90
7155;DHT22;3619;53.784;10.440;2023-04-24T14:48:03;13.70;99.90
7155;DHT22;3619;53.784;10.440;2023-04-24T14:50:30;13.60;99.90
7155;DHT22;3619;53.784;10.440;2023-04-24T14:52:58;13.40;99.90
7155;DHT22;3619;53.784;10.440;2023-04-24T14:55:27;13.20;99.90
7155;DHT22;3619;53.784;10.440;2023-04-24T14:57:54;13.00;99.90
7155;DHT22;3619;53.784;10.440;2023-04-24T15:00:21;12.80;99.90
7155;DHT22;3619;53.784;10.440;2023-04-24T15:02:49;12.70;99.90
7155;DHT22;3619;53.784;10.440;2023-04-24T15:05:16;12.60;99.90
7155;DHT22;3619;53.784;10.440;2023-04-24T15:07:43;12.50;99.90
7155;DHT22;3619;53.784;10.440;2023-04-24T15:10:12;12.40;99.90
7155;DHT22;3619;53.784;10.440;2023-04-24T15:12:39;12.30;99.90
7155;DHT22;3619;53.784;10.440;2023-04-24T15:15:07;12.30;99.90
7155;DHT22;3619;53.784;10.440;2023-04-24T15:17:34;12.30;99.90
7155;DHT22;3619;53.784;10.440;2023-04-24T15:20:01;12.40;99.90
7155;DHT22;3619;53.784;10.440;2023-04-24T15:22:29;12.50;99.90
7155;DHT22;3619;53.784;10.440;2023-04-24T15:24:55;12.60;99.90
7155;DHT22;3619;53.784;10.440;2023-04-24T15:27:24;12.60;99.90
7155;DHT22;3619;53.784;10.440;2023-04-24T15:29:50;12.70;99.90
7155;DHT22;3619;53.784;10.440;2023-04-24T15:32:19;12.80;99.90
7155;DHT22;3619;53.784;10.440;2023-04-24T15:34:45;12.60;99.90
7155;DHT22;3619;53.784;10.440;2023-04-24T15:37:12;12.20;99.90
7155;DHT22;3619;53.784;10.440;2023-04-24T15:39:39;11.60;99.90
7155;DHT22;3619;53.784;10.440;2023-04-24T15:42:05;11.20;99.90
7155;DHT22;3619;53.784;10.440;2023-04-24T15:44:34;10.90;99.90
7155;DHT22;3619;53.784;10.440;2023-04-24T15:47:01;10.60;99.90
7155;DHT22;3619;53.784;10.440;2023-04-24T15:49:27;10.50;99.90
7155;DHT22;3619;53.784;10.440;2023-04-24T15:51:54;10.30;99.90